Time;durP1;ratioP1;P1;durP2;ratioP2;P2;SDS_P1;SDS_P2;PMS_P1;PMS_P2;Temp;Humidity;BMP_temperature;BMP_pressure;BME280_temperature;BME280_humidity;BME280_pressure;Samples;Min_cycle;Max_cycle;Signal;HPM_P1;HPM_P2
2023/03/19 00:00:00;;;;;;;10.40;6.53;;;8.70;78.90;;;;;;5025405;28;20187;-51
2023/03/19 00:02:25;;;;;;;9.43;6.37;;;8.70;78.40;;;;;;5023988;28;20238;-52
2023/03/19 00:04:51;;;;;;;12.40;5.50;;;8.70;78.60;;;;;;5025090;28;20199;-53
2023/03/19 00:07:16;;;;;;;8.27;5.80;;;8.70;79.00;;;;;;5026819;28;20246;-54
2023/03/19 00:09:43;;;;;;;11.40;6.23;;;8.60;79.30;;;;;;5029200;28;20186;-53
2023/03/19 00:12:10;;;;;;;12.07;5.70;;;8.60;79.80;;;;;;5026083;28;20642;-53
2023/03/19 00:14:36;;;;;;;11.40;6.67;;;8.60;80.00;;;;;;5022988;28;20447;-55
2023/03/19 00:17:02;;;;;;;10.87;6.40;;;8.60;81.80;;;;;;5025728;28;20937;-53
2023/03/19 00:19:28;;;;;;;10.23;5.77;;;8.60;83.10;;;;;;5027315;28;20180;-51
2023/03/19 00:21:53;;;;;;;7.70;5.60;;;8.60;82.70;;;;;;5026469;28;20188;-53
2023/03/19 00:24:19;;;;;;;7.13;5.77;;;8.60;82.70;;;;;;5024385;28;20215;-53
2023/03/19 00:26:45;;;;;;;12.83;6.83;;;8.60;81.60;;;;;;5027681;28;20641;-55
2023/03/19 00:29:11;;;;;;;8.90;6.60;;;8.60;80.20;;;;;;5029422;28;20178;-52
2023/03/19 00:31:38;;;;;;;8.70;6.57;;;8.60;80.30;;;;;;5027366;28;20180;-54
2023/03/19 00:34:04;;;;;;;12.97;6.53;;;8.60;82.70;;;;;;5025269;28;20872;-57
2023/03/19 00:36:29;;;;;;;8.90;6.50;;;8.60;85.60;;;;;;5023166;28;20434;-53
2023/03/19 00:38:56;;;;;;;14.67;6.90;;;8.60;87.30;;;;;;5024408;28;20179;-53
2023/03/19 00:41:22;;;;;;;10.60;8.00;;;8.50;87.90;;;;;;5025805;28;20211;-54
2023/03/19 00:43:52;;;;;;;11.03;7.70;;;8.50;91.10;;;;;;5022034;28;20474;-55
2023/03/19 00:46:18;;;;;;;7.30;4.80;;;8.60;92.20;;;;;;5023008;28;20533;-52
2023/03/19 00:48:44;;;;;;;15.13;5.57;;;8.60;92.20;;;;;;5022596;28;21045;-55
2023/03/19 00:51:10;;;;;;;11.50;6.10;;;8.60;92.30;;;;;;5020796;28;20176;-53
2023/03/19 00:53:41;;;;;;;8.90;6.03;;;8.60;93.70;;;;;;5008926;28;20688;-53
2023/03/19 00:56:07;;;;;;;8.17;5.80;;;8.60;94.40;;;;;;5026769;28;20520;-54
2023/03/19 00:58:33;;;;;;;11.40;6.40;;;8.60;94.60;;;;;;5020154;28;20445;-55
2023/03/19 01:00:59;;;;;;;12.50;6.17;;;8.60;93.60;;;;;;5026395;28;20437;-55
2023/03/19 01:03:25;;;;;;;9.10;6.13;;;8.60;94.30;;;;;;5030323;28;20808;-56
2023/03/19 01:05:50;;;;;;;12.17;6.70;;;8.60;93.90;;;;;;5029432;28;20179;-52
2023/03/19 01:08:17;;;;;;;10.87;7.10;;;8.60;93.80;;;;;;5028429;28;20735;-54
2023/03/19 01:10:43;;;;;;;12.40;6.70;;;8.60;93.80;;;;;;5028263;28;20180;-51
2023/03/19 01:13:09;;;;;;;10.93;7.43;;;8.60;94.80;;;;;;5024825;28;20532;-56
2023/03/19 01:15:40;;;;;;;12.33;7.60;;;8.60;95.60;;;;;;5026394;28;20466;-51
2023/03/19 01:18:06;;;;;;;19.57;7.80;;;8.60;95.80;;;;;;5026206;28;20522;-54
2023/03/19 01:20:32;;;;;;;11.77;6.03;;;8.50;96.80;;;;;;5027273;28;20433;-53
2023/03/19 01:22:58;;;;;;;10.03;6.50;;;8.50;96.00;;;;;;5026996;28;20470;-55
2023/03/19 01:25:23;;;;;;;11.53;6.37;;;8.50;95.90;;;;;;5031268;28;20426;-53
2023/03/19 01:27:50;;;;;;;10.50;6.70;;;8.50;96.60;;;;;;5026768;28;20203;-54
2023/03/19 01:30:16;;;;;;;9.70;6.53;;;8.50;96.30;;;;;;5023887;28;20194;-55
2023/03/19 01:32:42;;;;;;;14.50;6.40;;;8.50;95.90;;;;;;5027714;28;20469;-56
2023/03/19 01:35:08;;;;;;;11.53;6.67;;;8.50;95.70;;;;;;5030233;28;20438;-51
2023/03/19 01:37:34;;;;;;;13.10;6.20;;;8.50;96.10;;;;;;5024459;28;20199;-52
2023/03/19 01:40:00;;;;;;;8.73;6.63;;;8.50;96.80;;;;;;5027235;28;20951;-54
2023/03/19 01:42:25;;;;;;;9.50;6.77;;;8.40;97.00;;;;;;5028452;28;20469;-52
2023/03/19 01:44:51;;;;;;;12.90;6.67;;;8.40;97.60;;;;;;5023502;28;20180;-54
2023/03/19 01:47:37;;;;;;;13.30;6.93;;;8.40;97.60;;;;;;5029969;28;20233;-51
2023/03/19 01:50:03;;;;;;;10.20;6.97;;;8.30;98.20;;;;;;5025931;28;20182;-52
2023/03/19 01:52:32;;;;;;;9.13;6.30;;;8.30;98.80;;;;;;5028769;28;20541;-55
2023/03/19 01:55:00;;;;;;;10.53;6.93;;;8.30;98.80;;;;;;5026845;28;20459;-52
2023/03/19 01:57:27;;;;;;;16.20;6.73;;;8.30;98.30;;;;;;5028820;28;20453;-54
2023/03/19 01:59:56;;;;;;;8.90;6.50;;;8.30;98.60;;;;;;5025203;28;20805;-52
2023/03/19 02:02:33;;;;;;;13.20;6.93;;;8.30;98.90;;;;;;5025288;28;20455;-53
2023/03/19 02:05:09;;;;;;;15.27;6.60;;;8.20;98.90;;;;;;5028205;28;20434;-52
2023/03/19 02:07:37;;;;;;;13.93;6.70;;;8.30;98.70;;;;;;5027025;28;20426;-54
2023/03/19 02:10:07;;;;;;;11.50;6.90;;;8.20;97.40;;;;;;5027234;28;20434;-53
2023/03/19 02:12:33;;;;;;;7.73;5.37;;;8.20;98.10;;;;;;5027710;28;20470;-55
2023/03/19 02:14:59;;;;;;;9.00;6.40;;;8.20;98.60;;;;;;5027861;28;20422;-51
2023/03/19 02:17:27;;;;;;;14.23;7.37;;;8.20;98.60;;;;;;5027921;28;20427;-53
2023/03/19 02:20:00;;;;;;;10.00;6.67;;;8.20;99.30;;;;;;5027681;28;20180;-53
2023/03/19 02:22:28;;;;;;;9.17;6.23;;;8.20;99.60;;;;;;5030547;28;20520;-54
2023/03/19 02:24:58;;;;;;;13.10;6.40;;;8.20;99.90;;;;;;5028151;28;20557;-54
2023/03/19 02:27:23;;;;;;;11.63;7.10;;;8.20;99.90;;;;;;5029978;28;20430;-53
2023/03/19 02:29:49;;;;;;;9.60;6.50;;;8.20;99.90;;;;;;5028747;28;20517;-53
2023/03/19 02:32:15;;;;;;;8.07;6.87;;;8.20;99.90;;;;;;5026401;28;20642;-55
2023/03/19 02:34:42;;;;;;;12.10;6.10;;;8.20;99.90;;;;;;5028508;28;20700;-52
2023/03/19 02:37:22;;;;;;;9.37;6.43;;;8.20;99.90;;;;;;5026272;28;20550;-54
2023/03/19 02:39:55;;;;;;;13.33;6.30;;;8.10;99.90;;;;;;5021133;28;20434;-54
2023/03/19 02:42:23;;;;;;;10.93;6.90;;;8.10;99.90;;;;;;5029987;28;20515;-56
2023/03/19 02:44:48;;;;;;;11.83;6.93;;;8.10;99.90;;;;;;5028467;28;20506;-50
2023/03/19 02:47:14;;;;;;;8.43;6.30;;;8.10;99.90;;;;;;5026319;28;20529;-53
2023/03/19 02:49:40;;;;;;;8.83;6.30;;;8.10;99.90;;;;;;5027095;28;20184;-55
2023/03/19 02:52:06;;;;;;;11.93;6.67;;;8.10;99.90;;;;;;5024013;28;20206;-55
2023/03/19 02:54:31;;;;;;;11.60;6.47;;;8.10;99.90;;;;;;5026036;28;20187;-56
2023/03/19 02:56:57;;;;;;;10.97;6.83;;;8.10;99.90;;;;;;5026560;28;20188;-53
2023/03/19 02:59:22;;;;;;;11.50;7.13;;;8.00;99.90;;;;;;5022253;28;20654;-53
2023/03/19 03:01:48;;;;;;;11.33;6.57;;;8.00;99.90;;;;;;5021701;28;20175;-54
2023/03/19 03:04:15;;;;;;;8.63;5.97;;;8.00;99.90;;;;;;5025044;28;20214;-52
2023/03/19 03:06:42;;;;;;;11.90;6.73;;;8.10;99.90;;;;;;5029002;28;20340;-54
2023/03/19 03:09:08;;;;;;;11.90;6.53;;;8.00;99.90;;;;;;5029141;28;20402;-52
2023/03/19 03:11:34;;;;;;;8.40;7.00;;;8.00;99.90;;;;;;5026915;28;20429;-56
2023/03/19 03:14:00;;;;;;;10.27;8.07;;;8.10;99.90;;;;;;5027335;28;20454;-55
2023/03/19 03:16:26;;;;;;;8.97;6.80;;;8.10;99.90;;;;;;5027397;28;20457;-54
2023/03/19 03:18:51;;;;;;;12.03;6.23;;;8.10;99.90;;;;;;5029038;28;20176;-53
2023/03/19 03:21:20;;;;;;;11.60;7.00;;;8.10;99.90;;;;;;5026348;28;20240;-53
2023/03/19 03:23:47;;;;;;;8.30;6.30;;;8.10;99.90;;;;;;5025659;28;20191;-53
2023/03/19 03:26:13;;;;;;;12.73;6.93;;;8.10;99.90;;;;;;5026585;28;20426;-53
2023/03/19 03:28:39;;;;;;;18.43;7.50;;;8.10;99.90;;;;;;5024239;28;20449;-54
2023/03/19 03:31:05;;;;;;;11.20;7.03;;;8.10;99.90;;;;;;5022618;28;20878;-55
2023/03/19 03:33:30;;;;;;;10.73;6.30;;;8.00;99.90;;;;;;5026498;28;20446;-53
2023/03/19 03:35:56;;;;;;;13.70;7.43;;;8.00;99.90;;;;;;5027794;28;20172;-53
2023/03/19 03:38:22;;;;;;;12.13;6.27;;;8.10;99.90;;;;;;5025007;28;20190;-54
2023/03/19 03:40:51;;;;;;;10.47;7.27;;;8.00;99.90;;;;;;5025355;28;20275;-53
2023/03/19 03:43:19;;;;;;;8.27;6.50;;;8.00;99.90;;;;;;5026789;28;20535;-54
2023/03/19 03:45:46;;;;;;;12.83;7.03;;;8.00;99.90;;;;;;5027737;28;21444;-54
2023/03/19 03:48:12;;;;;;;12.83;8.27;;;8.00;99.90;;;;;;5027839;28;20430;-55
2023/03/19 03:50:38;;;;;;;14.20;6.60;;;8.00;99.90;;;;;;5029187;28;20410;-55
2023/03/19 03:53:04;;;;;;;10.77;7.07;;;8.00;99.90;;;;;;5029379;28;20453;-54
2023/03/19 03:55:30;;;;;;;8.50;7.37;;;8.00;99.90;;;;;;5028965;28;20274;-55
2023/03/19 03:57:56;;;;;;;14.63;7.30;;;8.00;99.90;;;;;;5027312;28;20431;-56
2023/03/19 04:00:22;;;;;;;10.50;7.03;;;8.00;99.90;;;;;;5029574;28;20424;-52
2023/03/19 04:02:48;;;;;;;10.90;6.47;;;8.00;99.90;;;;;;5027775;28;20210;-54
2023/03/19 04:05:15;;;;;;;9.90;6.97;;;8.00;99.90;;;;;;5026590;28;20427;-53
2023/03/19 04:07:41;;;;;;;11.27;7.10;;;8.00;99.90;;;;;;5026916;28;20245;-57
2023/03/19 04:10:09;;;;;;;13.67;7.00;;;8.00;99.90;;;;;;5024810;28;20438;-55
2023/03/19 04:12:36;;;;;;;11.80;6.63;;;8.00;99.90;;;;;;5025621;28;20445;-55
2023/03/19 04:15:03;;;;;;;11.53;7.63;;;8.00;99.90;;;;;;5026550;28;20434;-55
2023/03/19 04:17:29;;;;;;;9.27;6.53;;;8.00;99.90;;;;;;5027745;28;20422;-53
2023/03/19 04:19:55;;;;;;;13.97;6.50;;;8.00;99.90;;;;;;5028008;28;20418;-56
2023/03/19 04:22:21;;;;;;;10.17;7.30;;;7.90;99.90;;;;;;5026776;28;20216;-53
2023/03/19 04:24:46;;;;;;;12.03;6.80;;;7.90;99.90;;;;;;5028121;28;20438;-54
2023/03/19 04:27:12;;;;;;;20.70;7.27;;;7.90;99.90;;;;;;5019748;28;20438;-54
2023/03/19 04:29:38;;;;;;;9.87;6.23;;;7.90;99.90;;;;;;5021579;28;20184;-53
2023/03/19 04:32:04;;;;;;;8.53;6.37;;;7.90;99.90;;;;;;5024396;28;20207;-55
2023/03/19 04:34:29;;;;;;;9.70;7.23;;;7.90;99.90;;;;;;5024054;28;20663;-53
2023/03/19 04:36:56;;;;;;;8.77;6.70;;;7.80;99.90;;;;;;5025804;28;20281;-54
2023/03/19 04:39:23;;;;;;;9.00;6.10;;;7.80;99.90;;;;;;5028039;28;20171;-52
2023/03/19 04:41:49;;;;;;;9.30;6.03;;;7.80;99.90;;;;;;5027285;28;20439;-53
2023/03/19 04:44:14;;;;;;;12.33;6.10;;;7.70;99.90;;;;;;5023466;28;20528;-53
2023/03/19 04:46:40;;;;;;;8.53;6.27;;;7.70;99.90;;;;;;5022553;28;20513;-54
2023/03/19 04:49:06;;;;;;;11.20;6.73;;;7.70;99.90;;;;;;5024207;28;20599;-55
2023/03/19 04:51:32;;;;;;;8.70;6.80;;;7.70;99.90;;;;;;5028201;28;20910;-55
2023/03/19 04:53:58;;;;;;;9.67;5.70;;;7.70;99.90;;;;;;5026971;28;20617;-55
2023/03/19 04:56:24;;;;;;;9.67;6.20;;;7.70;99.90;;;;;;5025535;28;20229;-53
2023/03/19 04:58:50;;;;;;;12.73;6.00;;;7.70;99.90;;;;;;5020327;28;20434;-52
2023/03/19 05:01:16;;;;;;;9.23;6.10;;;7.60;99.90;;;;;;5021162;28;20640;-53
2023/03/19 05:03:41;;;;;;;10.67;6.63;;;7.60;99.90;;;;;;5029486;28;20229;-53
2023/03/19 05:06:07;;;;;;;7.30;6.07;;;7.60;99.90;;;;;;5020237;28;20230;-52
2023/03/19 05:08:32;;;;;;;9.87;7.03;;;7.60;99.90;;;;;;5018468;28;20185;-55
2023/03/19 05:10:58;;;;;;;12.73;9.00;;;7.60;99.90;;;;;;5025040;28;20310;-51
2023/03/19 05:13:24;;;;;;;11.67;7.87;;;7.60;99.90;;;;;;5026030;28;20206;-53
2023/03/19 05:15:53;;;;;;;9.53;6.30;;;7.60;99.90;;;;;;5027877;28;20287;-54
2023/03/19 05:18:19;;;;;;;8.30;6.30;;;7.60;99.90;;;;;;5024003;28;20212;-54
2023/03/19 05:20:45;;;;;;;9.00;7.10;;;7.60;99.90;;;;;;5027469;28;20500;-54
2023/03/19 05:23:12;;;;;;;12.70;7.40;;;7.60;99.90;;;;;;5021785;28;20497;-53
2023/03/19 05:25:39;;;;;;;9.50;7.27;;;7.60;99.90;;;;;;5026022;28;20265;-56
2023/03/19 05:28:06;;;;;;;13.57;6.60;;;7.60;99.90;;;;;;5025511;28;20600;-54
2023/03/19 05:30:32;;;;;;;11.57;7.00;;;7.60;99.90;;;;;;5027641;28;20434;-55
2023/03/19 05:32:58;;;;;;;11.37;6.10;;;7.60;99.90;;;;;;5020817;28;20462;-54
2023/03/19 05:35:26;;;;;;;9.50;6.50;;;7.60;99.90;;;;;;5024471;28;20445;-55
2023/03/19 05:37:52;;;;;;;13.80;6.80;;;7.60;99.90;;;;;;5027119;28;20772;-57
2023/03/19 05:40:18;;;;;;;10.30;6.10;;;7.60;99.90;;;;;;5027884;28;20614;-53
2023/03/19 05:42:44;;;;;;;12.03;6.40;;;7.60;99.90;;;;;;5022008;28;20778;-55
2023/03/19 05:45:10;;;;;;;10.00;6.30;;;7.60;99.90;;;;;;5027425;28;20198;-55
2023/03/19 05:47:36;;;;;;;12.33;6.00;;;7.60;99.90;;;;;;5018080;28;20180;-53
2023/03/19 05:50:01;;;;;;;9.50;5.93;;;7.60;99.90;;;;;;5027912;28;20434;-53
2023/03/19 05:52:27;;;;;;;12.73;6.33;;;7.60;99.90;;;;;;5029525;28;20504;-54
2023/03/19 05:54:53;;;;;;;13.33;6.20;;;7.60;99.90;;;;;;5026689;28;20210;-54
2023/03/19 05:57:18;;;;;;;7.30;5.53;;;7.50;99.90;;;;;;5029487;28;20182;-53
2023/03/19 05:59:44;;;;;;;9.07;6.33;;;7.50;99.90;;;;;;5031471;28;20653;-55
2023/03/19 06:02:10;;;;;;;11.10;5.93;;;7.60;99.90;;;;;;5027211;28;20199;-52
2023/03/19 06:04:35;;;;;;;11.90;6.23;;;7.60;99.90;;;;;;5026764;28;20207;-54
2023/03/19 06:07:01;;;;;;;10.17;7.20;;;7.60;99.90;;;;;;5030006;28;20229;-54
2023/03/19 06:09:26;;;;;;;11.70;7.40;;;7.60;99.90;;;;;;5030004;28;20176;-53
2023/03/19 06:11:52;;;;;;;10.60;8.20;;;7.60;99.90;;;;;;5024921;28;20637;-52
2023/03/19 06:14:18;;;;;;;15.23;8.50;;;7.60;99.90;;;;;;5027003;28;20640;-54
2023/03/19 06:16:43;;;;;;;11.23;7.67;;;7.60;99.90;;;;;;5026648;28;20180;-52
2023/03/19 06:19:09;;;;;;;11.33;7.07;;;7.50;99.90;;;;;;5028381;28;20179;-53
2023/03/19 06:21:34;;;;;;;8.47;6.23;;;7.50;99.90;;;;;;5029928;28;20198;-53
2023/03/19 06:24:00;;;;;;;8.93;5.50;;;7.60;99.90;;;;;;5029369;28;20208;-52
2023/03/19 06:26:26;;;;;;;6.77;5.40;;;7.60;99.90;;;;;;5027484;28;20184;-55
2023/03/19 06:28:52;;;;;;;7.97;5.90;;;7.60;99.90;;;;;;5027228;28;20176;-53
2023/03/19 06:31:18;;;;;;;8.33;5.43;;;7.60;99.90;;;;;;5027024;28;20425;-53
2023/03/19 06:33:44;;;;;;;11.07;6.27;;;7.60;99.90;;;;;;5027662;28;21140;-55
2023/03/19 06:36:10;;;;;;;9.70;6.17;;;7.60;99.90;;;;;;5027757;28;20427;-52
2023/03/19 06:38:36;;;;;;;9.00;5.47;;;7.70;99.90;;;;;;5030813;28;20172;-53
2023/03/19 06:41:02;;;;;;;13.07;5.73;;;7.70;99.90;;;;;;5028674;28;20435;-53
2023/03/19 06:43:28;;;;;;;7.27;5.40;;;7.70;99.90;;;;;;5020857;28;20465;-53
2023/03/19 06:45:53;;;;;;;7.43;5.40;;;7.70;99.90;;;;;;5029072;28;20404;-52
2023/03/19 06:48:19;;;;;;;7.30;5.33;;;7.70;99.90;;;;;;5021749;28;20578;-54
2023/03/19 06:50:45;;;;;;;8.43;4.70;;;7.70;99.90;;;;;;5028745;28;20682;-57
2023/03/19 06:53:12;;;;;;;7.53;5.13;;;7.80;99.90;;;;;;5024112;28;20202;-53
2023/03/19 06:55:38;;;;;;;9.53;5.40;;;7.80;99.90;;;;;;5031066;28;20399;-53
2023/03/19 06:58:04;;;;;;;9.47;5.00;;;7.90;99.90;;;;;;5029376;28;20824;-54
2023/03/19 07:00:30;;;;;;;8.23;5.53;;;7.90;99.90;;;;;;5028659;28;20426;-51
2023/03/19 07:02:55;;;;;;;6.93;5.50;;;7.90;99.90;;;;;;5026376;28;20454;-51
2023/03/19 07:05:21;;;;;;;8.20;5.20;;;7.90;99.90;;;;;;5020764;28;20659;-52
2023/03/19 07:07:47;;;;;;;6.50;4.07;;;8.00;99.90;;;;;;5024556;28;20195;-56
2023/03/19 07:10:12;;;;;;;7.03;4.97;;;8.00;99.90;;;;;;5029908;28;20160;-53
2023/03/19 07:12:38;;;;;;;10.80;5.10;;;8.00;99.90;;;;;;5029933;28;20852;-55
2023/03/19 07:15:04;;;;;;;15.20;5.63;;;8.10;99.90;;;;;;5030380;28;20164;-51
2023/03/19 07:17:30;;;;;;;9.97;5.77;;;8.10;99.90;;;;;;5026735;28;20172;-54
2023/03/19 07:19:56;;;;;;;7.70;5.23;;;8.10;99.90;;;;;;5030038;28;20437;-55
2023/03/19 07:22:21;;;;;;;9.00;4.80;;;8.10;99.90;;;;;;5027532;28;20485;-53
2023/03/19 07:24:47;;;;;;;10.87;6.00;;;8.20;99.90;;;;;;5029037;28;20188;-55
2023/03/19 07:27:12;;;;;;;6.27;4.80;;;8.20;99.90;;;;;;5029068;28;20286;-54
2023/03/19 07:29:38;;;;;;;8.80;5.23;;;8.30;99.90;;;;;;5023456;28;20172;-54
2023/03/19 07:32:04;;;;;;;12.30;6.90;;;8.40;99.90;;;;;;5020975;28;20962;-57
2023/03/19 07:34:30;;;;;;;10.63;6.00;;;8.40;99.90;;;;;;5029389;28;20175;-53
2023/03/19 07:36:56;;;;;;;6.63;5.10;;;8.50;99.90;;;;;;5029164;28;20218;-52
2023/03/19 07:39:21;;;;;;;8.93;5.50;;;8.50;99.90;;;;;;5025701;28;20515;-53
2023/03/19 07:41:48;;;;;;;9.67;5.07;;;8.60;99.90;;;;;;5028343;28;20183;-55
2023/03/19 07:44:15;;;;;;;8.50;5.00;;;8.60;99.90;;;;;;5028272;28;20199;-53
2023/03/19 07:46:41;;;;;;;7.97;4.77;;;8.70;99.90;;;;;;5026309;28;20431;-56
2023/03/19 07:49:06;;;;;;;9.30;5.40;;;8.80;99.90;;;;;;5020899;28;20422;-54
2023/03/19 07:51:33;;;;;;;11.33;4.67;;;8.90;99.90;;;;;;5028355;28;20427;-54
2023/03/19 07:53:59;;;;;;;11.37;5.13;;;8.90;99.90;;;;;;5025907;28;20928;-55
2023/03/19 07:56:24;;;;;;;8.20;5.93;;;9.00;99.90;;;;;;5027232;28;20426;-55
2023/03/19 07:58:50;;;;;;;7.67;5.70;;;9.10;99.90;;;;;;5029079;28;20962;-54
2023/03/19 08:01:16;;;;;;;7.57;5.80;;;9.10;99.90;;;;;;5026513;28;20541;-54
2023/03/19 08:03:42;;;;;;;9.30;6.10;;;9.20;99.90;;;;;;5027529;28;20208;-55
2023/03/19 08:06:08;;;;;;;8.67;5.60;;;9.20;99.90;;;;;;5027390;28;20890;-53
2023/03/19 08:08:33;;;;;;;8.03;5.57;;;9.30;99.90;;;;;;5028430;28;20172;-53
2023/03/19 08:11:00;;;;;;;7.00;5.50;;;9.40;99.90;;;;;;5024034;28;20190;-53
2023/03/19 08:13:25;;;;;;;9.13;6.13;;;9.40;99.90;;;;;;5019942;28;20287;-53
2023/03/19 08:15:52;;;;;;;17.37;5.60;;;9.50;99.90;;;;;;5022872;28;20525;-57
2023/03/19 08:18:18;;;;;;;7.80;5.40;;;9.50;99.90;;;;;;5017709;28;20187;-54
2023/03/19 08:20:44;;;;;;;13.03;5.07;;;9.60;99.90;;;;;;5024572;28;20430;-56
2023/03/19 08:23:11;;;;;;;8.80;5.60;;;9.60;99.90;;;;;;5027653;28;21005;-54
2023/03/19 08:25:36;;;;;;;9.23;6.17;;;9.70;98.40;;;;;;5030016;28;20407;-54
2023/03/19 08:28:02;;;;;;;13.30;6.43;;;9.70;94.40;;;;;;5027940;28;20434;-54
2023/03/19 08:30:28;;;;;;;8.20;6.00;;;9.70;95.10;;;;;;5020868;28;20186;-54
2023/03/19 08:32:53;;;;;;;7.10;5.50;;;9.70;95.50;;;;;;5018164;28;20198;-52
2023/03/19 08:35:19;;;;;;;9.07;5.47;;;9.70;94.50;;;;;;5010850;28;20215;-54
2023/03/19 08:37:45;;;;;;;9.23;5.43;;;9.70;95.10;;;;;;5012567;28;20180;-52
2023/03/19 08:40:11;;;;;;;10.10;5.90;;;9.80;90.90;;;;;;5014941;28;20262;-53
2023/03/19 08:42:41;;;;;;;9.53;5.70;;;9.80;92.30;;;;;;5019716;28;20223;-53
2023/03/19 08:45:09;;;;;;;14.10;5.70;;;9.80;93.50;;;;;;5018615;28;20434;-57
2023/03/19 08:47:35;;;;;;;9.70;5.87;;;9.90;90.10;;;;;;5011970;28;20514;-55
2023/03/19 08:50:00;;;;;;;9.33;6.00;;;10.00;87.80;;;;;;5016920;28;20568;-53
2023/03/19 08:52:26;;;;;;;7.90;5.73;;;10.00;80.70;;;;;;5018992;28;20199;-52
2023/03/19 08:54:51;;;;;;;8.97;5.40;;;10.00;78.80;;;;;;5008052;28;20172;-56
2023/03/19 08:57:17;;;;;;;11.90;5.50;;;10.10;77.50;;;;;;5019089;28;20176;-54
2023/03/19 08:59:43;;;;;;;8.53;5.10;;;10.20;73.30;;;;;;5017183;28;20195;-53
2023/03/19 09:02:12;;;;;;;6.03;5.03;;;10.20;71.80;;;;;;5018407;28;20204;-52
2023/03/19 09:04:44;;;;;;;10.23;5.60;;;10.30;69.70;;;;;;5022226;28;20200;-51
2023/03/19 09:07:15;;;;;;;8.17;5.00;;;10.50;70.40;;;;;;5018247;28;20426;-51
2023/03/19 09:09:41;;;;;;;6.30;4.87;;;10.70;70.50;;;;;;5020287;28;20427;-55
2023/03/19 09:12:09;;;;;;;10.73;5.67;;;10.90;67.90;;;;;;5013208;28;20583;-53
2023/03/19 09:14:35;;;;;;;11.53;4.90;;;11.10;66.70;;;;;;5012556;28;20458;-54
2023/03/19 09:17:01;;;;;;;8.67;5.00;;;11.20;65.30;;;;;;5020201;28;20431;-52
2023/03/19 09:19:27;;;;;;;9.57;5.40;;;11.30;63.50;;;;;;5019303;28;20445;-55
2023/03/19 09:21:53;;;;;;;11.10;5.37;;;11.30;63.50;;;;;;5022626;28;20196;-58
2023/03/19 09:24:19;;;;;;;7.17;5.37;;;11.30;63.60;;;;;;5029617;28;20473;-51
2023/03/19 09:26:45;;;;;;;10.20;5.27;;;11.30;63.60;;;;;;5022930;28;20176;-50
2023/03/19 09:29:11;;;;;;;12.83;5.43;;;11.40;64.20;;;;;;5021831;28;20237;-55
2023/03/19 09:31:37;;;;;;;10.77;5.57;;;11.40;62.40;;;;;;5022130;28;21135;-56
2023/03/19 09:34:03;;;;;;;10.67;5.80;;;11.50;63.20;;;;;;5023517;28;20458;-56
2023/03/19 09:36:28;;;;;;;8.30;5.00;;;11.50;63.50;;;;;;5015540;28;20180;-56
2023/03/19 09:38:54;;;;;;;8.83;5.00;;;11.60;63.40;;;;;;5025765;28;20718;-54
2023/03/19 09:41:58;;;;;;;8.50;5.10;;;11.60;62.60;;;;;;5023986;28;20203;-54
2023/03/19 09:44:29;;;;;;;11.00;5.40;;;11.70;62.70;;;;;;5020065;28;20489;-57
2023/03/19 09:47:22;;;;;;;7.87;5.00;;;11.70;62.00;;;;;;5020014;28;20434;-57
2023/03/19 09:49:50;;;;;;;6.80;5.17;;;11.70;61.00;;;;;;5030009;28;20443;-61
2023/03/19 09:52:44;;;;;;;10.13;4.53;;;11.80;61.60;;;;;;5016254;28;20457;-53
2023/03/19 09:55:31;;;;;;;6.87;4.70;;;12.00;61.90;;;;;;5025163;28;20782;-57
2023/03/19 09:57:57;;;;;;;16.73;4.87;;;12.10;61.10;;;;;;5019526;28;20577;-53
2023/03/19 10:00:36;;;;;;;15.13;4.90;;;12.10;60.80;;;;;;5022845;28;20441;-55
2023/03/19 10:03:30;;;;;;;8.43;5.63;;;12.20;59.90;;;;;;5020191;28;20572;-57
2023/03/19 10:06:01;;;;;;;10.13;5.67;;;12.20;60.10;;;;;;5028641;28;20425;-52
2023/03/19 10:08:41;;;;;;;7.10;5.57;;;12.40;60.80;;;;;;5021260;28;20427;-55
2023/03/19 10:11:14;;;;;;;12.80;5.50;;;12.60;60.70;;;;;;5019253;28;20960;-58
2023/03/19 10:13:58;;;;;;;14.50;6.30;;;12.70;59.90;;;;;;5015240;28;20442;-53
2023/03/19 10:16:26;;;;;;;6.37;4.60;;;12.80;59.70;;;;;;5024711;28;20445;-55
2023/03/19 10:18:57;;;;;;;9.47;5.03;;;12.90;59.10;;;;;;5020608;28;20431;-55
2023/03/19 10:21:33;;;;;;;11.80;5.07;;;12.90;58.90;;;;;;5017262;28;20431;-56
2023/03/19 10:24:30;;;;;;;10.10;5.37;;;12.90;58.70;;;;;;5023965;28;20476;-56
2023/03/19 10:27:00;;;;;;;8.80;6.00;;;13.10;59.70;;;;;;5032303;28;20426;-53
2023/03/19 10:29:27;;;;;;;8.87;5.50;;;13.10;59.60;;;;;;5019506;28;20434;-53
2023/03/19 10:32:12;;;;;;;8.17;5.97;;;13.30;59.50;;;;;;5023789;28;20426;-55
2023/03/19 10:34:42;;;;;;;8.53;5.00;;;13.50;58.90;;;;;;5027629;28;20507;-58
2023/03/19 10:37:22;;;;;;;7.17;5.20;;;13.50;57.40;;;;;;5014102;28;20954;-55
2023/03/19 10:39:50;;;;;;;6.33;4.67;;;13.50;57.00;;;;;;5019802;28;20434;-56
2023/03/19 10:42:38;;;;;;;9.80;4.63;;;13.50;57.20;;;;;;5022192;28;20589;-56
2023/03/19 10:45:35;;;;;;;10.20;4.23;;;13.50;56.40;;;;;;5016510;28;20450;-57
2023/03/19 10:48:02;;;;;;;5.37;4.53;;;13.50;56.40;;;;;;5020051;28;20533;-55
2023/03/19 10:50:58;;;;;;;6.47;3.70;;;13.40;55.80;;;;;;5022402;28;20444;-51
2023/03/19 10:53:35;;;;;;;6.83;3.60;;;13.30;54.90;;;;;;5022193;28;20450;-53
2023/03/19 10:56:06;;;;;;;5.67;3.03;;;13.20;54.60;;;;;;5017075;28;20426;-57
2023/03/19 10:58:34;;;;;;;3.60;3.27;;;13.10;54.50;;;;;;5020099;28;20839;-56
2023/03/19 11:01:10;;;;;;;4.40;3.50;;;13.10;54.60;;;;;;5021778;28;20423;-55
2023/03/19 11:03:53;;;;;;;8.50;3.37;;;13.00;54.00;;;;;;5022246;28;20477;-56
2023/03/19 11:06:34;;;;;;;5.47;3.07;;;13.00;54.00;;;;;;5024411;28;20441;-53
2023/03/19 11:09:09;;;;;;;5.10;2.73;;;13.10;53.50;;;;;;5020129;28;20414;-50
2023/03/19 11:11:50;;;;;;;5.77;3.50;;;13.20;53.90;;;;;;5021643;28;20945;-53
2023/03/19 11:14:36;;;;;;;11.90;3.20;;;13.40;53.70;;;;;;5018101;28;21962;-54
2023/03/19 11:17:01;;;;;;;8.53;3.40;;;13.60;53.60;;;;;;5014675;28;20939;-60
2023/03/19 11:19:30;;;;;;;7.33;3.30;;;13.80;52.10;;;;;;5017878;28;20445;-56
2023/03/19 11:22:04;;;;;;;5.83;3.70;;;14.00;51.20;;;;;;5019046;28;20200;-52
2023/03/19 11:24:37;;;;;;;4.33;3.53;;;14.30;51.60;;;;;;5017599;28;20520;-56
2023/03/19 11:27:04;;;;;;;4.70;3.43;;;14.50;50.60;;;;;;5018975;28;20946;-55
2023/03/19 11:29:30;;;;;;;4.80;3.00;;;14.70;50.50;;;;;;5018902;28;20529;-54
2023/03/19 11:32:27;;;;;;;4.53;3.30;;;14.80;50.30;;;;;;5019186;28;20434;-56
2023/03/19 11:35:04;;;;;;;4.60;3.57;;;14.80;49.50;;;;;;5025537;28;20846;-54
2023/03/19 11:37:30;;;;;;;3.67;3.20;;;14.80;49.20;;;;;;5029201;28;20443;-54
2023/03/19 11:40:06;;;;;;;7.80;3.83;;;14.60;49.20;;;;;;5026484;28;20427;-53
2023/03/19 11:42:37;;;;;;;5.87;3.53;;;14.50;49.30;;;;;;5026123;28;20207;-55
2023/03/19 11:45:09;;;;;;;6.57;3.27;;;14.30;49.40;;;;;;5026916;28;20466;-54
2023/03/19 11:47:51;;;;;;;7.73;3.57;;;14.20;49.40;;;;;;5026331;28;20514;-53
2023/03/19 11:50:43;;;;;;;4.33;3.27;;;14.00;49.70;;;;;;5023016;28;20423;-55
2023/03/19 11:53:32;;;;;;;6.80;3.40;;;13.90;50.00;;;;;;5017661;28;20489;-56
2023/03/19 11:56:19;;;;;;;5.23;3.50;;;13.80;50.00;;;;;;5022827;28;20427;-55
2023/03/19 11:58:47;;;;;;;3.40;3.10;;;13.80;50.40;;;;;;5027861;28;20435;-57
2023/03/19 12:01:25;;;;;;;5.33;3.30;;;13.80;50.10;;;;;;5027050;28;20514;-56
2023/03/19 12:04:06;;;;;;;7.37;3.40;;;13.80;49.60;;;;;;5027897;28;21005;-53
2023/03/19 12:06:46;;;;;;;5.93;3.53;;;13.70;49.20;;;;;;5025743;28;20418;-53
2023/03/19 12:09:40;;;;;;;7.73;3.50;;;13.70;49.60;;;;;;5025744;28;20433;-54
2023/03/19 12:12:45;;;;;;;4.77;3.30;;;13.60;48.90;;;;;;5022160;28;20497;-56
2023/03/19 12:15:43;;;;;;;4.20;2.90;;;13.70;49.30;;;;;;5026527;28;20510;-55
2023/03/19 12:18:33;;;;;;;6.07;3.63;;;13.80;49.00;;;;;;5025782;28;20434;-56
2023/03/19 12:21:19;;;;;;;7.40;3.60;;;13.70;49.10;;;;;;5020898;28;20438;-54
2023/03/19 12:24:01;;;;;;;5.37;3.33;;;13.60;49.30;;;;;;5022590;28;20632;-52
2023/03/19 12:26:52;;;;;;;4.73;3.30;;;13.50;49.20;;;;;;5024883;28;20426;-53
2023/03/19 12:29:33;;;;;;;7.33;4.27;;;13.40;49.20;;;;;;5023972;28;20403;-53
2023/03/19 12:32:08;;;;;;;8.47;3.87;;;13.30;49.80;;;;;;5027159;28;20430;-52
2023/03/19 12:34:48;;;;;;;5.23;3.17;;;13.20;50.20;;;;;;5023407;28;20441;-54
2023/03/19 12:37:29;;;;;;;8.20;3.80;;;13.10;50.50;;;;;;5027963;28;20528;-50
2023/03/19 12:40:21;;;;;;;11.23;4.13;;;13.10;51.00;;;;;;5029314;28;20407;-54
2023/03/19 12:42:46;;;;;;;7.93;4.10;;;13.00;51.40;;;;;;5025365;28;20549;-53
2023/03/19 12:45:37;;;;;;;4.90;3.63;;;13.00;51.80;;;;;;5025456;28;20509;-51
2023/03/19 12:48:11;;;;;;;14.00;4.87;;;13.00;52.20;;;;;;5022660;28;20186;-54
2023/03/19 12:50:41;;;;;;;5.77;3.80;;;13.10;52.20;;;;;;5025046;28;20501;-53
2023/03/19 12:53:21;;;;;;;8.37;4.10;;;13.10;52.50;;;;;;5028477;28;20433;-54
2023/03/19 12:55:54;;;;;;;7.80;3.90;;;13.20;52.60;;;;;;5019848;28;20426;-54
2023/03/19 12:58:30;;;;;;;8.43;3.67;;;13.20;52.50;;;;;;5027353;28;20465;-53
2023/03/19 13:01:06;;;;;;;16.00;4.83;;;13.30;52.50;;;;;;5028054;28;20434;-56